Time;durP1;ratioP1;P1;durP2;ratioP2;P2;SDS_P1;SDS_P2;PMS_P1;PMS_P2;Temp;Humidity;BMP_temperature;BMP_pressure;BME280_temperature;BME280_humidity;BME280_pressure;Samples;Min_cycle;Max_cycle;Signal;HPM_P1;HPM_P2
2022/01/02 00:00:04;;;;;;;22.05;13.27;;;9.40;99.90;;;;;;4992389;28;20106;-68
2022/01/02 00:02:32;;;;;;;18.67;11.80;;;9.40;99.90;;;;;;4992653;28;20030;-66
2022/01/02 00:05:07;;;;;;;19.63;13.13;;;9.50;99.90;;;;;;4992850;28;20446;-66
2022/01/02 00:07:36;;;;;;;18.75;12.30;;;9.40;99.90;;;;;;4995359;28;20045;-67
2022/01/02 00:10:05;;;;;;;21.08;13.32;;;9.30;99.90;;;;;;4996166;28;20583;-67
2022/01/02 00:12:33;;;;;;;21.45;13.63;;;9.40;99.90;;;;;;4995960;28;20023;-73
2022/01/02 00:15:04;;;;;;;20.67;13.48;;;9.30;99.90;;;;;;4996466;28;20026;-67
2022/01/02 00:17:30;;;;;;;20.55;13.48;;;9.20;99.90;;;;;;4994691;28;20030;-70
2022/01/02 00:20:03;;;;;;;21.20;12.98;;;9.20;99.90;;;;;;5011347;28;20029;-67
2022/01/02 00:22:34;;;;;;;18.13;12.48;;;9.30;99.90;;;;;;4995493;28;20113;-67
2022/01/02 00:25:04;;;;;;;18.20;12.38;;;9.30;99.90;;;;;;4996312;28;20041;-70
2022/01/02 00:27:34;;;;;;;21.60;13.10;;;9.30;99.90;;;;;;4995713;28;20038;-69
2022/01/02 00:30:04;;;;;;;19.60;13.35;;;9.20;99.90;;;;;;5011553;28;20042;-66
2022/01/02 00:32:32;;;;;;;24.70;13.30;;;9.20;99.90;;;;;;4996176;28;20353;-71
2022/01/02 00:35:01;;;;;;;17.83;12.43;;;9.20;99.90;;;;;;4994844;28;20439;-72
2022/01/02 00:37:27;;;;;;;19.00;12.65;;;9.30;99.90;;;;;;4995528;28;20026;-68
2022/01/02 00:39:53;;;;;;;22.25;13.38;;;9.30;99.90;;;;;;4996102;28;20460;-72
2022/01/02 00:42:31;;;;;;;19.80;12.93;;;9.30;99.90;;;;;;4995377;28;20085;-67
2022/01/02 00:45:18;;;;;;;20.15;12.55;;;9.50;99.90;;;;;;4995974;28;20130;-73
2022/01/02 00:48:06;;;;;;;18.98;12.20;;;9.40;99.90;;;;;;4994905;28;20117;-67
2022/01/02 00:50:42;;;;;;;18.83;11.85;;;9.50;99.90;;;;;;4995281;28;20506;-66
2022/01/02 00:53:10;;;;;;;20.73;11.52;;;9.50;99.90;;;;;;4997125;28;20116;-66
2022/01/02 00:55:36;;;;;;;19.25;12.23;;;9.50;99.90;;;;;;4996317;28;20026;-66
2022/01/02 00:58:12;;;;;;;20.25;12.18;;;9.40;99.90;;;;;;4995740;28;20383;-67
2022/01/02 01:00:47;;;;;;;20.08;12.50;;;9.40;99.90;;;;;;4995258;28;20022;-67
2022/01/02 01:03:21;;;;;;;22.50;12.48;;;9.40;99.90;;;;;;4994912;28;20033;-68
2022/01/02 01:05:50;;;;;;;23.90;11.73;;;9.50;99.90;;;;;;5010766;28;20041;-70
2022/01/02 01:08:16;;;;;;;21.75;12.07;;;9.50;99.90;;;;;;5009964;28;20485;-67
2022/01/02 01:10:44;;;;;;;21.02;12.40;;;9.60;99.90;;;;;;5010759;28;20031;-66
2022/01/02 01:13:10;;;;;;;28.60;12.45;;;9.60;99.90;;;;;;4995462;28;20424;-68
2022/01/02 01:15:37;;;;;;;18.17;11.73;;;9.60;99.90;;;;;;4994808;28;20045;-69
2022/01/02 01:18:03;;;;;;;16.95;12.25;;;9.70;99.90;;;;;;4995529;28;20038;-69
2022/01/02 01:20:31;;;;;;;18.60;12.20;;;9.70;99.90;;;;;;5010122;28;20026;-67
2022/01/02 01:22:57;;;;;;;21.63;14.52;;;9.60;99.90;;;;;;4995315;28;20415;-67
2022/01/02 01:25:24;;;;;;;18.70;12.30;;;9.40;99.90;;;;;;4993136;28;20042;-67
2022/01/02 01:27:52;;;;;;;21.75;11.50;;;9.40;99.90;;;;;;4995083;28;20034;-67
2022/01/02 01:30:21;;;;;;;21.50;10.98;;;9.30;99.90;;;;;;4994226;28;20046;-65
2022/01/02 01:32:47;;;;;;;17.45;11.38;;;9.20;99.90;;;;;;4993658;28;20032;-65
2022/01/02 01:35:14;;;;;;;17.55;11.85;;;9.10;99.90;;;;;;4998951;28;20029;-68
2022/01/02 01:37:41;;;;;;;18.73;11.05;;;9.00;99.90;;;;;;5014116;28;20092;-66
2022/01/02 01:40:10;;;;;;;20.50;13.35;;;9.00;99.90;;;;;;5014317;28;20037;-66
2022/01/02 01:47:52;;;;;;;20.15;12.05;;;8.90;99.90;;;;;;5014395;28;20034;-68
2022/01/02 01:50:20;;;;;;;19.80;12.38;;;8.90;99.90;;;;;;5013349;28;20030;-65
2022/01/02 01:52:46;;;;;;;20.70;13.35;;;8.80;99.90;;;;;;5012635;28;20034;-66
2022/01/02 01:55:12;;;;;;;18.90;10.98;;;8.80;99.90;;;;;;5012549;28;20048;-67
2022/01/02 01:57:39;;;;;;;17.95;12.38;;;8.90;99.90;;;;;;5013470;28;20026;-66
2022/01/02 02:00:13;;;;;;;16.00;10.48;;;8.90;99.90;;;;;;5012704;28;20052;-66
2022/01/02 02:02:39;;;;;;;19.05;10.98;;;8.80;99.90;;;;;;5013366;28;20034;-66
2022/01/02 02:05:05;;;;;;;20.70;11.93;;;8.70;99.90;;;;;;5012425;28;20099;-66
2022/01/02 02:07:39;;;;;;;17.25;12.27;;;8.70;99.90;;;;;;5013363;28;20456;-69
2022/01/02 02:10:14;;;;;;;15.35;11.00;;;8.70;99.90;;;;;;5013692;28;20034;-66
2022/01/02 02:12:42;;;;;;;19.05;12.20;;;8.70;99.90;;;;;;5012166;28;20026;-66
2022/01/02 02:15:09;;;;;;;19.85;13.20;;;8.70;99.90;;;;;;5013895;28;20103;-68
2022/01/02 02:17:35;;;;;;;17.98;12.48;;;8.70;99.90;;;;;;5012100;28;20030;-67
2022/01/02 02:20:21;;;;;;;20.50;12.25;;;8.80;99.90;;;;;;5012590;28;20021;-68
2022/01/02 02:22:52;;;;;;;20.75;12.90;;;8.70;99.90;;;;;;5012429;28;20471;-68
2022/01/02 02:25:20;;;;;;;22.13;12.77;;;8.70;99.90;;;;;;5013150;28;20065;-68
2022/01/02 02:27:55;;;;;;;19.70;12.90;;;8.60;99.90;;;;;;5012892;28;20521;-67
2022/01/02 02:30:21;;;;;;;20.40;12.20;;;8.70;99.90;;;;;;5012084;28;20050;-66
2022/01/02 02:32:47;;;;;;;19.55;12.07;;;8.80;99.90;;;;;;5014257;28;20104;-65
2022/01/02 02:35:14;;;;;;;22.10;14.48;;;8.90;99.90;;;;;;5012845;28;20040;-66
2022/01/02 02:37:44;;;;;;;19.70;12.48;;;8.90;99.90;;;;;;5012814;28;20068;-66
2022/01/02 02:40:18;;;;;;;19.98;12.40;;;8.80;99.90;;;;;;5013947;28;20037;-67
2022/01/02 02:50:58;;;;;;;29.77;14.18;;;8.50;99.90;;;;;;5014673;28;20033;-66
2022/01/02 02:53:24;;;;;;;29.15;15.18;;;8.50;99.90;;;;;;5014142;28;20026;-65
2022/01/02 02:55:55;;;;;;;25.45;15.85;;;8.50;99.90;;;;;;5014090;28;20049;-68
2022/01/02 03:00:55;;;;;;;24.77;14.20;;;8.50;99.90;;;;;;5015279;28;20176;-68
2022/01/02 03:03:21;;;;;;;25.38;14.45;;;8.70;99.90;;;;;;5012599;28;20025;-66
2022/01/02 03:05:47;;;;;;;24.45;13.95;;;8.70;99.90;;;;;;5013437;28;20033;-69
2022/01/02 03:08:12;;;;;;;25.90;15.77;;;8.80;99.90;;;;;;5012383;28;20022;-66
2022/01/02 03:10:38;;;;;;;21.67;14.50;;;8.60;99.90;;;;;;5012652;28;20033;-66
2022/01/02 03:13:04;;;;;;;20.17;13.15;;;8.60;99.90;;;;;;5012876;28;20383;-66
2022/01/02 03:15:29;;;;;;;22.98;13.55;;;8.50;99.90;;;;;;5011583;28;20088;-69
2022/01/02 03:17:55;;;;;;;23.90;13.13;;;8.60;99.90;;;;;;5012932;28;20030;-66
2022/01/02 03:20:21;;;;;;;22.00;13.40;;;8.70;99.90;;;;;;5012755;28;20107;-67
2022/01/02 03:22:46;;;;;;;21.02;13.10;;;8.80;99.90;;;;;;5013208;28;20053;-67
2022/01/02 03:25:14;;;;;;;24.08;14.40;;;8.80;99.90;;;;;;5013123;28;20069;-66
2022/01/02 03:27:40;;;;;;;22.88;13.30;;;8.80;99.90;;;;;;5012802;28;20022;-66
2022/01/02 03:30:07;;;;;;;21.48;13.20;;;8.80;99.90;;;;;;5013211;28;20050;-66
2022/01/02 03:32:33;;;;;;;21.50;13.18;;;8.80;99.90;;;;;;5012630;28;20030;-66
2022/01/02 03:34:59;;;;;;;24.95;14.63;;;8.90;99.90;;;;;;5014181;28;20391;-65
2022/01/02 03:37:28;;;;;;;20.60;12.82;;;8.80;99.90;;;;;;5014637;28;20030;-68
2022/01/02 03:39:55;;;;;;;21.02;13.25;;;8.80;99.90;;;;;;5013707;28;20033;-66
2022/01/02 03:42:21;;;;;;;18.90;13.45;;;8.80;99.90;;;;;;5015583;28;20529;-68
2022/01/02 03:44:47;;;;;;;20.33;12.45;;;8.90;99.90;;;;;;5015459;28;20076;-67
2022/01/02 03:47:12;;;;;;;17.25;12.57;;;8.70;99.90;;;;;;5016712;28;20034;-67
2022/01/02 03:49:38;;;;;;;19.98;13.60;;;8.80;99.90;;;;;;5016209;28;20034;-66
2022/01/02 03:52:04;;;;;;;23.05;14.52;;;8.80;99.90;;;;;;5016939;28;20112;-69
2022/01/02 03:54:30;;;;;;;21.10;14.30;;;8.80;99.90;;;;;;5015004;28;20072;-66
2022/01/02 03:56:55;;;;;;;22.10;14.68;;;8.80;99.90;;;;;;5016772;28;20030;-65
2022/01/02 03:59:21;;;;;;;24.10;14.20;;;8.80;99.90;;;;;;4998756;28;20435;-65
2022/01/02 04:01:47;;;;;;;21.23;14.27;;;8.80;99.90;;;;;;5016526;28;20057;-71
2022/01/02 04:04:12;;;;;;;20.65;14.35;;;8.80;99.90;;;;;;5015286;28;20097;-66
2022/01/02 04:06:38;;;;;;;21.80;14.45;;;8.90;99.90;;;;;;5014672;28;20041;-65
2022/01/02 04:09:04;;;;;;;19.10;12.85;;;9.00;99.90;;;;;;5016643;28;20459;-66
2022/01/02 04:11:29;;;;;;;20.15;13.40;;;9.00;99.90;;;;;;5015485;28;20383;-65
2022/01/02 04:13:55;;;;;;;24.05;13.23;;;9.00;99.90;;;;;;4998655;28;20060;-66
2022/01/02 04:16:21;;;;;;;20.70;12.68;;;8.90;99.90;;;;;;5016344;28;20037;-66
2022/01/02 04:18:48;;;;;;;19.98;13.27;;;8.90;99.90;;;;;;5015609;28;20030;-66
2022/01/02 04:21:13;;;;;;;19.13;13.35;;;8.80;99.90;;;;;;5016232;28;20040;-66
2022/01/02 04:23:39;;;;;;;23.52;12.35;;;8.80;99.90;;;;;;5015251;28;20105;-65
2022/01/02 04:26:05;;;;;;;21.83;14.00;;;8.80;99.90;;;;;;5016068;28;20121;-68
2022/01/02 04:28:31;;;;;;;18.23;12.68;;;8.80;99.90;;;;;;5015759;28;20454;-67
2022/01/02 04:30:56;;;;;;;17.67;11.40;;;8.70;99.90;;;;;;5017056;28;20078;-68
2022/01/02 04:33:22;;;;;;;21.58;12.80;;;8.60;99.90;;;;;;5016639;28;20483;-65
2022/01/02 04:35:48;;;;;;;17.95;12.45;;;8.60;99.90;;;;;;5014549;28;20030;-66
2022/01/02 04:38:14;;;;;;;21.05;12.80;;;8.50;99.90;;;;;;5015822;28;20026;-66
2022/01/02 04:40:41;;;;;;;19.25;12.57;;;8.50;99.90;;;;;;5015034;28;20407;-66
2022/01/02 04:43:07;;;;;;;19.63;12.63;;;8.60;99.90;;;;;;5015880;28;20026;-68
2022/01/02 04:45:33;;;;;;;23.60;13.57;;;8.70;99.90;;;;;;5015102;28;20029;-68
2022/01/02 04:47:58;;;;;;;19.77;12.68;;;8.70;99.90;;;;;;5015519;28;20049;-70
2022/01/02 04:50:25;;;;;;;19.40;12.38;;;8.60;99.90;;;;;;5016356;28;20026;-65
2022/01/02 04:52:56;;;;;;;20.75;12.98;;;8.60;99.90;;;;;;5014041;28;20064;-67
2022/01/02 04:55:22;;;;;;;20.85;12.98;;;8.60;99.90;;;;;;5014737;28;20041;-65
2022/01/02 04:57:47;;;;;;;17.30;11.88;;;8.50;99.90;;;;;;5015027;28;20029;-65
2022/01/02 05:00:13;;;;;;;20.48;13.45;;;8.50;99.90;;;;;;5015593;28;20448;-68
2022/01/02 05:02:39;;;;;;;19.88;12.43;;;8.50;99.90;;;;;;5013768;28;20030;-65
2022/01/02 05:05:05;;;;;;;17.17;12.18;;;8.50;99.90;;;;;;5015115;28;20109;-68
2022/01/02 05:07:31;;;;;;;20.38;12.27;;;8.40;99.90;;;;;;5014844;28;20104;-65
2022/01/02 05:09:56;;;;;;;16.73;11.50;;;8.40;99.90;;;;;;5014353;28;20025;-67
2022/01/02 05:12:22;;;;;;;22.98;13.70;;;8.50;99.90;;;;;;5016007;28;20088;-70
2022/01/02 05:14:48;;;;;;;18.63;12.23;;;8.50;99.90;;;;;;5013635;28;20483;-66
2022/01/02 05:17:13;;;;;;;20.33;13.98;;;8.30;99.90;;;;;;5014144;28;20148;-67
2022/01/02 05:19:39;;;;;;;20.58;12.93;;;8.20;99.90;;;;;;5013618;28;20498;-68
2022/01/02 05:22:05;;;;;;;20.02;12.70;;;8.30;99.90;;;;;;5015695;28;20022;-65
2022/01/02 05:24:30;;;;;;;20.65;13.15;;;8.20;99.90;;;;;;5013841;28;20033;-66
2022/01/02 05:26:56;;;;;;;19.45;12.60;;;8.30;99.90;;;;;;5015036;28;20072;-72
2022/01/02 05:29:22;;;;;;;22.20;13.52;;;8.30;99.90;;;;;;5013936;28;20022;-67
2022/01/02 05:31:49;;;;;;;20.38;13.85;;;8.50;99.90;;;;;;5012934;28;20511;-70
2022/01/02 05:34:15;;;;;;;18.52;12.73;;;8.50;99.90;;;;;;5013992;28;20037;-73
2022/01/02 05:36:41;;;;;;;20.45;12.32;;;8.50;99.90;;;;;;5013059;28;20022;-70
2022/01/02 05:39:07;;;;;;;18.10;11.32;;;8.50;99.90;;;;;;5013264;28;20108;-70
2022/01/02 05:41:34;;;;;;;18.65;12.32;;;8.50;99.90;;;;;;5013328;28;20089;-67
2022/01/02 05:43:59;;;;;;;20.90;12.57;;;8.50;99.90;;;;;;5013305;28;20030;-67
2022/01/02 05:46:25;;;;;;;19.63;12.25;;;8.50;99.90;;;;;;5014502;28;20032;-65
2022/01/02 05:48:52;;;;;;;18.65;11.20;;;8.50;99.90;;;;;;5014263;28;20034;-65
2022/01/02 05:51:18;;;;;;;20.13;12.25;;;8.40;99.90;;;;;;5014591;28;20415;-65
2022/01/02 05:53:43;;;;;;;18.58;11.30;;;8.40;99.90;;;;;;5013909;28;20080;-72
2022/01/02 05:56:09;;;;;;;17.77;11.70;;;8.60;99.90;;;;;;5014384;28;20030;-65
2022/01/02 05:58:35;;;;;;;16.77;11.48;;;8.60;99.90;;;;;;5014069;28;20093;-67
2022/01/02 06:01:00;;;;;;;20.30;10.95;;;8.70;99.90;;;;;;5014088;28;20109;-64
2022/01/02 06:03:26;;;;;;;15.90;11.07;;;8.70;99.90;;;;;;5013371;28;20026;-66
2022/01/02 06:05:52;;;;;;;18.17;11.15;;;8.70;99.90;;;;;;5013204;28;20105;-66
2022/01/02 06:08:17;;;;;;;16.38;11.00;;;8.60;99.90;;;;;;5014606;28;20114;-69
2022/01/02 06:10:43;;;;;;;18.00;11.80;;;8.50;99.90;;;;;;5012747;28;20088;-64
2022/01/02 06:13:09;;;;;;;19.05;11.80;;;8.60;99.90;;;;;;5013086;28;20029;-65
2022/01/02 06:15:35;;;;;;;15.88;10.70;;;8.60;99.90;;;;;;5012437;28;20036;-66
2022/01/02 06:18:00;;;;;;;18.45;12.00;;;8.70;99.90;;;;;;5012641;28;20079;-68
2022/01/02 06:20:26;;;;;;;15.07;10.48;;;8.70;99.90;;;;;;5012671;28;20471;-66
2022/01/02 06:22:54;;;;;;;22.33;10.63;;;8.70;99.90;;;;;;5013598;28;20026;-65
2022/01/02 06:25:19;;;;;;;17.30;11.23;;;8.80;99.90;;;;;;5030836;28;20406;-65
2022/01/02 06:27:45;;;;;;;18.25;10.75;;;8.60;99.90;;;;;;5030611;28;20037;-65
2022/01/02 06:30:11;;;;;;;17.85;11.60;;;8.60;99.90;;;;;;5014323;28;20419;-66
2022/01/02 06:32:37;;;;;;;18.17;12.35;;;8.70;99.90;;;;;;5030426;28;20034;-65
2022/01/02 06:35:03;;;;;;;16.67;10.63;;;8.70;99.90;;;;;;5014359;28;20076;-65
2022/01/02 06:37:28;;;;;;;18.55;11.35;;;8.70;99.90;;;;;;5030737;28;20467;-66
2022/01/02 06:39:54;;;;;;;19.42;11.77;;;8.60;99.90;;;;;;5013764;28;20418;-65
2022/01/02 06:42:19;;;;;;;15.20;10.48;;;8.50;99.90;;;;;;5030753;28;20029;-65
2022/01/02 06:44:45;;;;;;;18.25;11.52;;;8.60;99.90;;;;;;5013772;28;20479;-65
2022/01/02 06:47:10;;;;;;;16.58;10.93;;;8.80;99.90;;;;;;5031370;28;20438;-66
2022/01/02 06:49:36;;;;;;;17.70;11.05;;;8.70;99.90;;;;;;5030270;28;20079;-65
2022/01/02 06:52:02;;;;;;;15.93;11.45;;;8.60;99.90;;;;;;5030761;28;20041;-65
2022/01/02 06:54:27;;;;;;;15.35;10.98;;;8.50;99.90;;;;;;5030572;28;20038;-68
2022/01/02 06:56:53;;;;;;;17.13;10.95;;;8.60;99.90;;;;;;5017089;28;20099;-65
2022/01/02 06:59:19;;;;;;;17.48;10.88;;;8.50;99.90;;;;;;5012198;28;20376;-64
2022/01/02 07:01:44;;;;;;;15.32;10.73;;;8.60;99.90;;;;;;5012928;28;20530;-65
2022/01/02 07:04:10;;;;;;;13.80;10.13;;;8.70;99.90;;;;;;5012976;28;20030;-67
2022/01/02 07:06:36;;;;;;;19.95;12.18;;;8.80;99.90;;;;;;5012607;28;20030;-64
2022/01/02 07:09:02;;;;;;;17.35;10.77;;;8.90;99.90;;;;;;5012907;28;20026;-64
2022/01/02 07:11:28;;;;;;;18.00;10.68;;;8.90;99.90;;;;;;5013449;28;20026;-65
2022/01/02 07:13:53;;;;;;;15.13;11.23;;;8.80;99.90;;;;;;5011299;28;20500;-67
2022/01/02 07:16:19;;;;;;;14.15;10.55;;;8.90;99.90;;;;;;5014071;28;20022;-69
2022/01/02 07:18:45;;;;;;;18.50;10.60;;;8.90;99.90;;;;;;5014350;28;20032;-66
2022/01/02 07:21:10;;;;;;;17.73;10.57;;;8.90;99.90;;;;;;5012480;28;20468;-67
2022/01/02 07:23:36;;;;;;;15.45;10.68;;;8.90;99.90;;;;;;5013023;28;20070;-74
2022/01/02 07:26:02;;;;;;;16.67;11.32;;;8.80;99.90;;;;;;5013747;28;20054;-66
2022/01/02 07:28:29;;;;;;;16.85;9.90;;;8.80;99.90;;;;;;5012867;28;20391;-65
2022/01/02 07:30:55;;;;;;;15.10;9.27;;;8.70;99.90;;;;;;5012015;28;20721;-68
2022/01/02 07:33:22;;;;;;;14.57;10.25;;;8.80;99.90;;;;;;5011545;28;20057;-64
2022/01/02 07:35:47;;;;;;;15.20;10.50;;;8.70;99.90;;;;;;5012166;28;20120;-69
2022/01/02 07:38:13;;;;;;;17.70;10.70;;;8.60;99.90;;;;;;5011274;28;20061;-64
2022/01/02 07:40:38;;;;;;;20.00;11.65;;;8.70;99.90;;;;;;5011734;28;20117;-65
2022/01/02 07:43:04;;;;;;;19.40;10.65;;;8.60;99.90;;;;;;5013115;28;20026;-65
2022/01/02 07:45:30;;;;;;;19.13;11.13;;;8.80;99.90;;;;;;5012605;28;20040;-65
2022/01/02 07:47:55;;;;;;;17.52;10.63;;;8.60;99.90;;;;;;5010803;28;20419;-65
2022/01/02 07:50:22;;;;;;;17.67;10.55;;;8.60;99.90;;;;;;5012779;28;20022;-66
2022/01/02 07:52:48;;;;;;;15.60;11.20;;;8.60;99.90;;;;;;5010765;28;20034;-65
2022/01/02 07:55:14;;;;;;;15.77;10.23;;;8.60;99.90;;;;;;5012414;28;20100;-65
2022/01/02 07:57:40;;;;;;;15.60;9.80;;;8.70;99.90;;;;;;5012141;28;20493;-67
2022/01/02 08:00:06;;;;;;;18.33;10.82;;;8.60;99.90;;;;;;5012651;28;20113;-69
2022/01/02 08:02:32;;;;;;;15.32;10.15;;;8.50;99.90;;;;;;5012702;28;20026;-66
2022/01/02 08:04:57;;;;;;;15.18;9.98;;;8.60;99.90;;;;;;5011782;28;20440;-65
2022/01/02 08:07:23;;;;;;;13.60;9.45;;;8.60;99.90;;;;;;5011457;28;20030;-64
2022/01/02 08:09:49;;;;;;;11.73;9.25;;;8.70;99.90;;;;;;5012170;28;20030;-66
2022/01/02 08:12:14;;;;;;;14.70;10.73;;;8.70;99.90;;;;;;5012957;28;20030;-68
2022/01/02 08:14:40;;;;;;;15.57;9.98;;;8.80;99.90;;;;;;5012470;28;20030;-66
2022/01/02 08:17:06;;;;;;;14.98;10.30;;;8.90;99.90;;;;;;5011282;28;20069;-66
2022/01/02 08:19:31;;;;;;;12.38;8.65;;;8.90;99.90;;;;;;5012398;28;20057;-65
2022/01/02 08:21:57;;;;;;;14.82;10.60;;;8.90;99.90;;;;;;5011737;28;20558;-65
2022/01/02 08:24:22;;;;;;;15.82;11.57;;;9.00;99.90;;;;;;5011125;28;20042;-72
2022/01/02 08:26:48;;;;;;;16.00;10.40;;;9.00;99.90;;;;;;5011058;28;20069;-65
2022/01/02 08:29:14;;;;;;;15.45;10.07;;;9.00;99.90;;;;;;5014945;28;20037;-77
2022/01/02 08:31:40;;;;;;;15.30;10.38;;;9.00;99.90;;;;;;5016314;28;20046;-73
2022/01/02 08:34:06;;;;;;;15.18;10.82;;;9.10;99.90;;;;;;5015602;28;20038;-67
2022/01/02 08:36:31;;;;;;;18.05;10.77;;;9.10;99.90;;;;;;5015987;28;20493;-72
2022/01/02 08:38:57;;;;;;;17.50;9.75;;;9.00;99.90;;;;;;5015201;28;20022;-65
2022/01/02 08:41:23;;;;;;;17.02;10.75;;;9.00;99.90;;;;;;5014245;28;20152;-66
2022/01/02 08:43:48;;;;;;;21.75;11.15;;;8.90;99.90;;;;;;5014830;28;20384;-65
2022/01/02 08:46:14;;;;;;;16.73;10.50;;;8.90;99.90;;;;;;5015374;28;20036;-66
2022/01/02 08:48:40;;;;;;;15.18;10.23;;;8.80;99.90;;;;;;5013650;28;20029;-71
2022/01/02 08:51:07;;;;;;;13.45;9.68;;;8.80;99.90;;;;;;5014069;28;20129;-65
2022/01/02 08:53:34;;;;;;;12.85;9.23;;;8.70;99.90;;;;;;5015432;28;20084;-66
2022/01/02 08:56:00;;;;;;;15.77;9.77;;;8.70;99.90;;;;;;5013391;28;20238;-66
2022/01/02 08:58:27;;;;;;;19.23;10.68;;;8.80;99.90;;;;;;5014568;28;20022;-66
2022/01/02 09:00:52;;;;;;;14.23;9.68;;;8.70;99.90;;;;;;5015309;28;20037;-65
2022/01/02 09:03:18;;;;;;;14.68;9.88;;;8.80;99.90;;;;;;5013988;28;20030;-65
2022/01/02 09:05:44;;;;;;;14.00;10.20;;;8.80;99.90;;;;;;5013024;28;20037;-68
2022/01/02 09:08:09;;;;;;;19.15;11.13;;;8.90;99.90;;;;;;5014003;28;20037;-66
2022/01/02 09:10:35;;;;;;;13.38;9.73;;;8.80;99.90;;;;;;5015119;28;20026;-65
2022/01/02 09:13:01;;;;;;;16.35;9.25;;;8.80;99.90;;;;;;5016035;28;20388;-66
2022/01/02 09:15:26;;;;;;;10.80;8.68;;;8.90;99.90;;;;;;5016211;28;20037;-66
2022/01/02 09:17:52;;;;;;;13.32;9.20;;;8.90;99.90;;;;;;5015019;28;20026;-65
2022/01/02 09:20:18;;;;;;;17.25;10.82;;;9.00;99.90;;;;;;5015386;28;20029;-64
2022/01/02 09:22:44;;;;;;;13.43;9.93;;;9.00;99.90;;;;;;5014643;28;20459;-68
2022/01/02 09:25:10;;;;;;;13.57;10.30;;;9.10;99.90;;;;;;5016219;28;20044;-65
2022/01/02 09:27:36;;;;;;;15.70;11.20;;;9.10;99.90;;;;;;5014495;28;20550;-66
2022/01/02 09:30:07;;;;;;;14.75;10.45;;;9.10;99.90;;;;;;5014908;28;20053;-65
2022/01/02 09:32:34;;;;;;;17.70;9.63;;;9.10;99.90;;;;;;5014953;28;20030;-65
2022/01/02 09:35:01;;;;;;;13.10;9.45;;;9.10;99.90;;;;;;5013834;28;20037;-65
2022/01/02 09:37:27;;;;;;;13.65;9.38;;;9.20;99.90;;;;;;5013481;28;20379;-66
2022/01/02 09:39:53;;;;;;;22.90;10.73;;;9.30;99.90;;;;;;5013136;28;20109;-67
2022/01/02 09:42:19;;;;;;;12.90;9.82;;;9.30;99.90;;;;;;5014475;28;20066;-67
2022/01/02 09:44:45;;;;;;;17.33;10.27;;;9.30;99.90;;;;;;5012437;28;20042;-66
2022/01/02 09:47:12;;;;;;;15.35;9.60;;;9.40;99.90;;;;;;5014488;28;20030;-70
2022/01/02 09:49:39;;;;;;;15.23;10.40;;;9.30;99.90;;;;;;5014989;28;20029;-66
2022/01/02 09:52:06;;;;;;;13.98;9.55;;;9.10;99.90;;;;;;5018653;28;20049;-65
2022/01/02 09:54:33;;;;;;;14.65;10.38;;;9.20;99.90;;;;;;5017140;28;20041;-65
2022/01/02 09:57:01;;;;;;;16.73;10.60;;;9.30;99.90;;;;;;5013432;28;20519;-68
2022/01/02 09:59:27;;;;;;;13.15;8.95;;;9.30;99.90;;;;;;5013200;28;20463;-67
2022/01/02 10:01:53;;;;;;;12.40;9.43;;;9.30;99.90;;;;;;5012558;28;20036;-66
2022/01/02 10:04:35;;;;;;;16.02;10.27;;;9.30;99.90;;;;;;5015641;28;20037;-68
2022/01/02 10:07:02;;;;;;;14.40;9.70;;;9.20;99.90;;;;;;5014202;28;20423;-67
2022/01/02 10:09:36;;;;;;;13.80;9.88;;;9.20;99.90;;;;;;5012924;28;20025;-65
2022/01/02 10:12:21;;;;;;;14.43;9.75;;;9.10;99.90;;;;;;5013541;28;20029;-66
2022/01/02 10:15:06;;;;;;;15.48;9.50;;;9.10;99.90;;;;;;5013407;28;20025;-65
2022/01/02 10:17:53;;;;;;;13.25;8.85;;;9.10;99.90;;;;;;5012808;28;20487;-66
2022/01/02 10:20:21;;;;;;;13.65;9.35;;;9.10;99.90;;;;;;5012661;28;20088;-69
2022/01/02 10:23:11;;;;;;;13.85;9.57;;;9.10;99.90;;;;;;5012269;28;20042;-67
2022/01/02 10:25:45;;;;;;;15.05;9.20;;;9.10;99.90;;;;;;5012461;28;20038;-68
2022/01/02 10:28:20;;;;;;;13.07;9.68;;;9.00;99.90;;;;;;5012512;28;20026;-66
2022/01/02 10:30:48;;;;;;;15.18;10.35;;;9.00;99.90;;;;;;5011460;28;20399;-67
2022/01/02 10:33:14;;;;;;;15.80;10.68;;;9.10;99.90;;;;;;5013700;28;20030;-68
2022/01/02 10:35:41;;;;;;;15.40;10.65;;;9.10;99.90;;;;;;5013653;28;20411;-65
2022/01/02 10:38:13;;;;;;;13.32;9.63;;;9.00;99.90;;;;;;5013388;28;20030;-67
2022/01/02 10:40:39;;;;;;;15.15;10.05;;;9.10;99.90;;;;;;5013252;28;20026;-67
2022/01/02 10:43:29;;;;;;;15.57;9.52;;;9.00;99.90;;;;;;5013797;28;20120;-67
2022/01/02 10:45:58;;;;;;;16.50;10.82;;;8.90;99.90;;;;;;5013797;28;20042;-66
2022/01/02 10:48:35;;;;;;;17.08;10.30;;;8.90;99.90;;;;;;5015324;28;20034;-69
2022/01/02 10:51:23;;;;;;;14.35;9.70;;;8.70;99.90;;;;;;4996328;28;20032;-65
2022/01/02 10:53:53;;;;;;;12.20;9.52;;;8.80;99.90;;;;;;5012310;28;20168;-65
2022/01/02 10:56:22;;;;;;;13.75;9.30;;;8.80;99.90;;;;;;5011856;28;20038;-65
2022/01/02 10:58:48;;;;;;;17.08;10.48;;;8.90;99.90;;;;;;5011589;28;20076;-68
2022/01/02 11:01:15;;;;;;;15.30;10.95;;;9.00;99.90;;;;;;5013111;28;20029;-67
2022/01/02 11:03:44;;;;;;;16.35;9.52;;;8.90;99.90;;;;;;5013608;28;20109;-66
2022/01/02 11:06:13;;;;;;;15.77;9.80;;;8.90;99.90;;;;;;5012744;28;20093;-66
2022/01/02 11:08:44;;;;;;;11.70;8.65;;;9.00;99.90;;;;;;5014244;28;20030;-67
2022/01/02 11:11:10;;;;;;;13.07;9.27;;;9.00;99.90;;;;;;5011561;28;20033;-69
2022/01/02 11:13:36;;;;;;;14.20;10.23;;;8.90;99.90;;;;;;5012283;28;20080;-70
2022/01/02 11:16:04;;;;;;;27.63;18.15;;;8.90;99.90;;;;;;5010907;28;20030;-65
2022/01/02 11:18:34;;;;;;;12.65;9.27;;;9.10;99.90;;;;;;5012816;28;20125;-65
2022/01/02 11:21:04;;;;;;;13.68;9.40;;;9.40;99.90;;;;;;5009177;28;20033;-69
2022/01/02 11:23:36;;;;;;;12.18;9.93;;;9.10;99.90;;;;;;5010530;28;20388;-68
2022/01/02 11:26:18;;;;;;;13.07;10.10;;;9.00;99.90;;;;;;5010600;28;20212;-66
2022/01/02 11:28:50;;;;;;;12.98;9.60;;;9.10;99.90;;;;;;5012879;28;20045;-65
2022/01/02 11:31:35;;;;;;;;;;;9.20;99.90;;;;;;5012256;28;20042;-69
2022/01/02 11:34:19;;;;;;;12.98;8.88;;;9.10;99.90;;;;;;5011163;28;20370;-66
2022/01/02 11:36:45;;;;;;;11.50;7.53;;;9.30;99.90;;;;;;5005952;28;20140;-65
2022/01/02 11:39:11;;;;;;;14.85;9.60;;;9.20;99.90;;;;;;5014900;28;20188;-69
2022/01/02 11:41:41;;;;;;;14.90;8.40;;;9.20;99.90;;;;;;5004253;28;20034;-66
2022/01/02 11:44:11;;;;;;;12.93;8.13;;;9.30;99.90;;;;;;4994238;28;20387;-66
2022/01/02 11:46:50;;;;;;;15.20;9.43;;;9.30;99.90;;;;;;5007800;28;20042;-65
2022/01/02 11:49:21;;;;;;;11.95;8.50;;;9.30;99.90;;;;;;4996460;28;20104;-66
2022/01/02 11:51:47;;;;;;;11.52;8.55;;;9.30;99.90;;;;;;5010158;28;20529;-68
2022/01/02 11:54:28;;;;;;;15.25;9.05;;;9.40;99.90;;;;;;5013374;28;20049;-67
2022/01/02 11:57:23;;;;;;;12.43;8.80;;;9.30;99.90;;;;;;5012283;28;20030;-67
2022/01/02 11:59:48;;;;;;;15.65;8.82;;;9.40;99.90;;;;;;5010503;28;20484;-67
2022/01/02 12:02:24;;;;;;;13.65;9.00;;;9.40;99.90;;;;;;5009868;28;20033;-66
2022/01/02 12:04:59;;;;;;;13.30;8.30;;;9.40;99.90;;;;;;5008250;28;20144;-69
2022/01/02 12:07:37;;;;;;;10.32;7.20;;;9.70;99.90;;;;;;5013001;28;20036;-65
2022/01/02 12:10:20;;;;;;;14.02;7.85;;;9.90;99.90;;;;;;5010839;28;20464;-66
2022/01/02 12:13:10;;;;;;;13.32;8.13;;;10.00;99.90;;;;;;5011650;28;20026;-67
2022/01/02 12:15:38;;;;;;;11.85;7.40;;;10.10;99.90;;;;;;5011080;28;20046;-67
2022/01/02 12:18:10;;;;;;;11.32;8.23;;;10.50;99.90;;;;;;5009501;28;20396;-67
2022/01/02 12:21:02;;;;;;;9.75;7.15;;;11.50;99.90;;;;;;4995229;28;20035;-66
2022/01/02 12:23:34;;;;;;;10.45;6.93;;;12.00;99.90;;;;;;4995292;28;20046;-66
2022/01/02 12:26:05;;;;;;;7.28;6.32;;;11.90;99.90;;;;;;5014795;28;20042;-65
2022/01/02 12:29:01;;;;;;;;;;;12.50;99.90;;;;;;5010598;28;20093;-67
2022/01/02 12:31:34;;;;;;;12.40;5.72;;;12.90;99.90;;;;;;5011147;28;19917;-66
2022/01/02 12:34:08;;;;;;;9.85;7.45;;;13.20;99.90;;;;;;5015977;28;20022;-69
2022/01/02 12:36:35;;;;;;;9.07;6.45;;;13.30;99.90;;;;;;5015748;28;20033;-67
2022/01/02 12:39:07;;;;;;;9.23;5.85;;;13.40;99.90;;;;;;5015222;28;20040;-67
2022/01/02 12:41:35;;;;;;;7.80;5.93;;;13.80;99.90;;;;;;5015704;28;20034;-67
2022/01/02 12:44:11;;;;;;;7.97;6.53;;;14.10;99.90;;;;;;5014679;28;20032;-65
2022/01/02 12:46:50;;;;;;;7.68;5.78;;;14.40;99.90;;;;;;5009669;28;20092;-69
2022/01/02 12:49:19;;;;;;;11.30;6.43;;;14.50;99.90;;;;;;4997320;28;20041;-65
2022/01/02 12:51:47;;;;;;;8.25;5.70;;;14.70;99.90;;;;;;4995477;28;20066;-67
2022/01/02 12:54:16;;;;;;;7.05;5.32;;;14.90;99.90;;;;;;4995225;28;20366;-66
2022/01/02 12:56:44;;;;;;;9.60;5.90;;;15.00;99.90;;;;;;5011344;28;20046;-68
2022/01/02 12:59:27;;;;;;;6.97;5.20;;;15.00;99.90;;;;;;5010789;28;20084;-66
2022/01/02 13:02:03;;;;;;;10.70;6.47;;;15.70;99.90;;;;;;4997189;28;20022;-66